Terminal Aerodrome Forecast
Issued by NWS

Home | Current Version | Previous Version | Text Only | Print | Product List | Glossary On
Versions: 1 2 3 4 5 6 7 8 9 10 11 12 13
000
FTUS41 KPBZ 290500
TAFBVI
TAF
KBVI 290527Z 2906/3006 33005KT P6SM SCT025 BKN035
      TEMPO 2908/2912 BKN025
     FM291600 35005KT P6SM SCT035
      AMD NOT SKED=

USA.gov is the U.S. government's official web portal to all federal, state and local government web resources and services.